createdAt,value
2023-09-08T00:00:41.023Z,100.00
2023-09-08T00:03:07.710Z,100.00
2023-09-08T00:05:34.393Z,100.00
2023-09-08T00:08:00.989Z,100.00
2023-09-08T00:10:27.734Z,100.00
2023-09-08T00:12:54.373Z,100.00
2023-09-08T00:15:20.962Z,100.00
2023-09-08T00:17:48.798Z,100.00
2023-09-08T00:20:16.422Z,100.00
2023-09-08T00:22:43.094Z,100.00
2023-09-08T00:25:09.782Z,100.00
2023-09-08T00:27:36.564Z,100.00
2023-09-08T00:30:03.429Z,100.00
2023-09-08T00:32:30.435Z,100.00
2023-09-08T00:34:57.310Z,100.00
2023-09-08T00:37:24.293Z,100.00
2023-09-08T00:39:50.942Z,100.00
2023-09-08T00:42:17.558Z,100.00
2023-09-08T00:44:44.161Z,100.00
2023-09-08T00:47:10.763Z,100.00
2023-09-08T00:49:37.734Z,100.00
2023-09-08T00:52:04.954Z,100.00
2023-09-08T00:54:31.913Z,100.00
2023-09-08T00:56:58.815Z,100.00
2023-09-08T00:59:26.098Z,100.00
2023-09-08T01:01:53.241Z,100.00
2023-09-08T01:04:20.045Z,100.00
2023-09-08T01:06:47.130Z,100.00
2023-09-08T01:09:15.051Z,100.00
2023-09-08T01:11:42.806Z,100.00
2023-09-08T01:14:09.778Z,100.00
2023-09-08T01:16:36.575Z,100.00
2023-09-08T01:19:06.242Z,100.00
2023-09-08T01:21:59.255Z,100.00
2023-09-08T01:24:49.223Z,100.00
2023-09-08T01:27:18.046Z,100.00
2023-09-08T01:29:48.670Z,100.00
2023-09-08T01:32:15.584Z,100.00
2023-09-08T01:34:42.385Z,100.00
2023-09-08T01:37:09.615Z,100.00
2023-09-08T01:39:37.068Z,100.00
2023-09-08T01:42:04.414Z,100.00
2023-09-08T01:44:31.060Z,100.00
2023-09-08T01:46:58.434Z,100.00
2023-09-08T01:49:25.785Z,100.00
2023-09-08T01:51:53.487Z,100.00
2023-09-08T01:54:20.196Z,100.00
2023-09-08T01:56:46.842Z,100.00
2023-09-08T01:59:13.463Z,100.00
2023-09-08T02:01:41.066Z,100.00
2023-09-08T02:04:07.843Z,100.00
2023-09-08T02:06:34.497Z,100.00
2023-09-08T02:09:01.264Z,100.00
2023-09-08T02:11:27.931Z,100.00
2023-09-08T02:13:57.264Z,100.00
2023-09-08T02:16:25.154Z,100.00
2023-09-08T02:18:51.824Z,100.00
2023-09-08T02:21:18.544Z,100.00
2023-09-08T02:23:45.170Z,100.00
2023-09-08T02:26:12.192Z,100.00
2023-09-08T02:28:39.204Z,100.00
2023-09-08T02:31:06.173Z,100.00
2023-09-08T02:33:32.884Z,100.00
2023-09-08T02:36:06.259Z,100.00
2023-09-08T02:38:33.929Z,100.00
2023-09-08T02:41:00.782Z,100.00
2023-09-08T02:43:28.636Z,100.00
2023-09-08T02:45:55.621Z,100.00
2023-09-08T02:48:22.618Z,100.00
2023-09-08T02:50:49.387Z,100.00
2023-09-08T02:53:16.074Z,100.00
2023-09-08T02:55:42.820Z,100.00
2023-09-08T02:58:09.587Z,100.00
2023-09-08T03:00:36.249Z,100.00
2023-09-08T03:03:03.626Z,100.00
2023-09-08T03:05:30.861Z,100.00
2023-09-08T03:07:57.558Z,100.00
2023-09-08T03:10:24.278Z,100.00
2023-09-08T03:12:50.900Z,100.00
2023-09-08T03:15:17.539Z,100.00
2023-09-08T03:17:44.346Z,100.00
2023-09-08T03:20:12.170Z,100.00
2023-09-08T03:22:38.836Z,100.00
2023-09-08T03:25:06.298Z,100.00
2023-09-08T03:27:33.166Z,100.00
2023-09-08T03:29:59.854Z,100.00
2023-09-08T03:32:27.121Z,100.00
2023-09-08T03:34:53.884Z,100.00
2023-09-08T03:37:20.662Z,100.00
2023-09-08T03:39:47.384Z,100.00
2023-09-08T03:42:14.804Z,100.00
2023-09-08T03:44:41.492Z,100.00
2023-09-08T03:47:08.243Z,100.00
2023-09-08T03:49:35.099Z,100.00
2023-09-08T03:52:01.756Z,100.00
2023-09-08T03:54:28.484Z,100.00
2023-09-08T03:56:55.121Z,100.00
2023-09-08T03:59:22.039Z,100.00
2023-09-08T04:01:48.961Z,100.00
2023-09-08T04:04:15.715Z,100.00
2023-09-08T04:06:43.093Z,100.00
2023-09-08T04:09:10.031Z,100.00
2023-09-08T04:11:36.746Z,100.00
2023-09-08T04:14:03.477Z,100.00
2023-09-08T04:16:30.274Z,100.00
2023-09-08T04:18:57.156Z,100.00
2023-09-08T04:21:23.958Z,100.00
2023-09-08T04:23:50.724Z,100.00
2023-09-08T04:26:17.395Z,100.00
2023-09-08T04:28:44.105Z,100.00
2023-09-08T04:31:10.994Z,100.00
2023-09-08T04:33:37.852Z,100.00
2023-09-08T04:36:04.933Z,100.00
2023-09-08T04:38:31.605Z,100.00
2023-09-08T04:40:58.326Z,100.00
2023-09-08T04:43:25.051Z,100.00
2023-09-08T04:45:52.031Z,100.00
2023-09-08T04:48:18.904Z,100.00
2023-09-08T04:50:45.683Z,100.00
2023-09-08T04:53:12.313Z,100.00
2023-09-08T04:55:38.949Z,100.00
2023-09-08T04:58:05.545Z,100.00
2023-09-08T05:00:32.372Z,100.00
2023-09-08T05:02:59.103Z,100.00
2023-09-08T05:05:26.118Z,100.00
2023-09-08T05:07:57.548Z,100.00
2023-09-08T05:10:25.180Z,100.00
2023-09-08T05:12:52.355Z,100.00
2023-09-08T05:15:22.196Z,100.00
2023-09-08T05:17:48.969Z,100.00
2023-09-08T05:20:15.785Z,100.00
2023-09-08T05:22:42.870Z,100.00
2023-09-08T05:25:10.082Z,100.00
2023-09-08T05:27:37.792Z,100.00
2023-09-08T05:30:05.812Z,100.00
2023-09-08T05:32:33.038Z,100.00
2023-09-08T05:35:00.106Z,100.00
2023-09-08T05:37:26.821Z,100.00
2023-09-08T05:39:53.835Z,100.00
2023-09-08T05:42:20.583Z,100.00
2023-09-08T05:44:48.991Z,100.00
2023-09-08T05:47:16.041Z,100.00
2023-09-08T05:49:42.923Z,100.00
2023-09-08T05:52:10.659Z,100.00
2023-09-08T05:54:37.330Z,100.00
2023-09-08T05:57:04.231Z,100.00
2023-09-08T05:59:30.995Z,100.00
2023-09-08T06:01:57.759Z,100.00
2023-09-08T06:04:24.702Z,100.00
2023-09-08T06:06:51.474Z,100.00
2023-09-08T06:09:18.142Z,100.00
2023-09-08T06:11:44.816Z,100.00
2023-09-08T06:14:11.475Z,100.00
2023-09-08T06:16:39.058Z,100.00
2023-09-08T06:19:07.160Z,100.00
2023-09-08T06:21:33.889Z,100.00
2023-09-08T06:24:00.847Z,100.00
2023-09-08T06:26:28.043Z,100.00
2023-09-08T06:28:54.814Z,100.00
2023-09-08T06:31:21.536Z,100.00
2023-09-08T06:33:49.277Z,100.00
2023-09-08T06:36:16.290Z,100.00
2023-09-08T06:38:42.928Z,100.00
2023-09-08T06:41:11.908Z,100.00
2023-09-08T06:43:39.212Z,100.00
2023-09-08T06:46:06.180Z,100.00
2023-09-08T06:48:33.174Z,100.00
2023-09-08T06:51:00.228Z,100.00
2023-09-08T06:53:27.083Z,100.00
2023-09-08T06:55:53.788Z,100.00
2023-09-08T06:58:20.611Z,100.00
2023-09-08T07:00:47.916Z,100.00
2023-09-08T07:03:14.899Z,100.00
2023-09-08T07:05:41.792Z,100.00
2023-09-08T07:08:08.784Z,100.00
2023-09-08T07:10:35.490Z,100.00
2023-09-08T07:13:02.783Z,100.00
2023-09-08T07:15:29.708Z,100.00
2023-09-08T07:17:56.606Z,100.00
2023-09-08T07:20:23.455Z,100.00
2023-09-08T07:22:50.328Z,100.00
2023-09-08T07:25:17.083Z,100.00
2023-09-08T07:27:43.769Z,100.00
2023-09-08T07:30:10.969Z,100.00
2023-09-08T07:32:38.040Z,100.00
2023-09-08T07:35:05.127Z,100.00
2023-09-08T07:37:31.741Z,100.00
2023-09-08T07:40:01.018Z,100.00
2023-09-08T07:42:28.554Z,100.00
2023-09-08T07:44:55.180Z,100.00
2023-09-08T07:47:21.858Z,100.00
2023-09-08T07:49:49.701Z,100.00
2023-09-08T07:52:16.378Z,100.00
2023-09-08T07:54:43.073Z,100.00
2023-09-08T07:57:10.788Z,100.00
2023-09-08T07:59:38.155Z,100.00
2023-09-08T08:02:05.059Z,100.00
2023-09-08T08:04:32.028Z,100.00
2023-09-08T08:06:58.861Z,100.00
2023-09-08T08:09:25.479Z,100.00
2023-09-08T08:11:52.582Z,100.00
2023-09-08T08:14:19.300Z,100.00
2023-09-08T08:16:45.962Z,100.00
2023-09-08T08:19:12.618Z,100.00
2023-09-08T08:21:39.382Z,100.00
2023-09-08T08:24:06.680Z,100.00
2023-09-08T08:26:34.326Z,100.00
2023-09-08T08:29:01.090Z,100.00
2023-09-08T08:31:27.953Z,100.00
2023-09-08T08:33:54.738Z,100.00
2023-09-08T08:36:24.220Z,100.00
2023-09-08T08:38:50.923Z,100.00
2023-09-08T08:41:17.690Z,100.00
2023-09-08T08:43:46.137Z,100.00
2023-09-08T08:46:14.448Z,100.00
2023-09-08T08:48:41.782Z,100.00
2023-09-08T08:51:10.022Z,100.00
2023-09-08T08:53:39.088Z,100.00
2023-09-08T08:56:09.839Z,100.00
2023-09-08T08:58:40.282Z,100.00
2023-09-08T09:01:08.404Z,100.00
2023-09-08T09:03:39.123Z,100.00
2023-09-08T09:06:06.041Z,100.00
2023-09-08T09:08:34.350Z,100.00
2023-09-08T09:11:01.564Z,100.00
2023-09-08T09:13:28.267Z,100.00
2023-09-08T09:16:00.488Z,100.00
2023-09-08T09:18:31.697Z,100.00
2023-09-08T09:21:01.384Z,100.00
2023-09-08T09:23:35.918Z,100.00
2023-09-08T09:26:08.504Z,100.00
2023-09-08T09:28:35.784Z,100.00
2023-09-08T09:31:02.643Z,100.00
2023-09-08T09:33:29.550Z,100.00
2023-09-08T09:35:56.367Z,100.00
2023-09-08T09:38:23.529Z,100.00
2023-09-08T09:40:52.944Z,100.00
2023-09-08T09:43:22.947Z,100.00
2023-09-08T09:45:49.819Z,100.00
2023-09-08T09:48:16.776Z,100.00
2023-09-08T09:50:46.530Z,100.00
2023-09-08T09:53:15.925Z,100.00
2023-09-08T09:55:44.990Z,100.00
2023-09-08T09:58:12.380Z,100.00
2023-09-08T10:00:43.235Z,100.00
2023-09-08T10:03:12.287Z,100.00
2023-09-08T10:05:39.028Z,100.00
2023-09-08T10:08:06.268Z,100.00
2023-09-08T10:10:35.850Z,100.00
2023-09-08T10:13:06.195Z,100.00
2023-09-08T10:15:33.218Z,100.00
2023-09-08T10:18:01.438Z,100.00
2023-09-08T10:20:30.053Z,100.00
2023-09-08T10:23:33.131Z,100.00
2023-09-08T10:26:04.899Z,100.00
2023-09-08T10:28:33.786Z,100.00
2023-09-08T10:31:02.238Z,100.00
2023-09-08T10:33:30.067Z,100.00
2023-09-08T10:35:57.964Z,100.00
2023-09-08T10:38:26.476Z,100.00
2023-09-08T10:41:16.435Z,100.00
2023-09-08T10:44:04.407Z,100.00
2023-09-08T10:46:33.247Z,100.00
2023-09-08T10:49:11.839Z,100.00
2023-09-08T10:51:40.107Z,100.00
2023-09-08T10:54:07.158Z,100.00
2023-09-08T10:56:56.166Z,100.00
2023-09-08T10:59:29.008Z,100.00
2023-09-08T11:01:56.898Z,100.00
2023-09-08T11:04:26.424Z,100.00
2023-09-08T11:06:53.204Z,100.00
2023-09-08T11:09:20.369Z,100.00
2023-09-08T11:11:47.589Z,100.00
2023-09-08T11:14:14.671Z,100.00
2023-09-08T11:16:41.582Z,100.00
2023-09-08T11:19:08.304Z,100.00
2023-09-08T11:21:40.986Z,100.00
2023-09-08T11:24:10.898Z,100.00
2023-09-08T11:26:38.803Z,100.00
2023-09-08T11:29:06.896Z,100.00
2023-09-08T11:31:33.641Z,100.00
2023-09-08T11:34:01.497Z,100.00
2023-09-08T11:36:29.731Z,100.00
2023-09-08T11:38:56.545Z,100.00
2023-09-08T11:41:25.137Z,100.00
2023-09-08T11:43:52.970Z,97.93
2023-09-08T11:46:20.060Z,100.00
2023-09-08T11:48:47.508Z,98.74
2023-09-08T11:51:14.338Z,96.30
2023-09-08T11:53:42.314Z,96.69
2023-09-08T11:56:09.804Z,93.26
2023-09-08T11:58:37.678Z,93.12
2023-09-08T12:01:05.787Z,94.06
2023-09-08T12:03:32.915Z,90.36
2023-09-08T12:06:01.417Z,89.52
2023-09-08T12:08:28.718Z,86.67
2023-09-08T12:10:55.675Z,84.87
2023-09-08T12:13:24.250Z,76.32
2023-09-08T12:15:51.020Z,76.31
2023-09-08T12:18:17.769Z,82.03
2023-09-08T12:20:45.452Z,80.87
2023-09-08T12:23:20.488Z,68.48
2023-09-08T12:25:53.871Z,70.82
2023-09-08T12:28:22.333Z,64.36
2023-09-08T12:30:52.576Z,66.92
2023-09-08T12:33:21.810Z,70.06
2023-09-08T12:35:54.736Z,65.35
2023-09-08T12:38:21.472Z,70.36
2023-09-08T12:40:48.381Z,60.63
2023-09-08T12:43:28.435Z,66.60
2023-09-08T12:45:58.928Z,64.62
2023-09-08T12:48:25.826Z,59.13
2023-09-08T12:50:52.510Z,59.16
2023-09-08T12:53:19.878Z,64.26
2023-09-08T12:55:47.283Z,63.63
2023-09-08T12:58:14.377Z,61.12
2023-09-08T13:00:41.053Z,61.50
2023-09-08T13:03:07.698Z,68.51
2023-09-08T13:05:37.258Z,62.99
2023-09-08T13:08:04.145Z,65.24
2023-09-08T13:10:31.008Z,75.54
2023-09-08T13:12:57.756Z,69.72
2023-09-08T13:15:25.175Z,71.12
2023-09-08T13:17:52.589Z,63.96
2023-09-08T13:20:19.662Z,71.43
2023-09-08T13:22:46.426Z,69.25
2023-09-08T13:25:13.108Z,71.89
2023-09-08T13:27:43.494Z,82.02
2023-09-08T13:30:11.621Z,73.07
2023-09-08T13:32:39.017Z,70.14
2023-09-08T13:35:07.238Z,74.16
2023-09-08T13:37:35.877Z,77.79
2023-09-08T13:40:05.748Z,77.18
2023-09-08T13:42:33.194Z,83.75
2023-09-08T13:45:00.576Z,77.75
2023-09-08T13:47:28.126Z,81.03
2023-09-08T13:49:56.231Z,85.55
2023-09-08T13:52:28.463Z,81.39
2023-09-08T13:57:29.489Z,81.14
2023-09-08T13:59:57.962Z,81.50
2023-09-08T14:04:56.557Z,77.38
2023-09-08T14:07:35.960Z,81.04
2023-09-08T14:12:38.256Z,80.38
2023-09-08T14:15:05.855Z,83.87
2023-09-08T14:17:32.523Z,92.73
2023-09-08T14:19:59.191Z,80.08
2023-09-08T14:22:26.065Z,83.71
2023-09-08T14:24:52.666Z,82.41
2023-09-08T14:27:19.745Z,80.73
2023-09-08T14:29:46.417Z,83.72
2023-09-08T14:32:13.107Z,89.65
2023-09-08T14:34:39.797Z,92.21
2023-09-08T14:37:08.628Z,89.41
2023-09-08T14:39:37.208Z,91.01
2023-09-08T14:42:04.120Z,84.60
2023-09-08T14:44:30.841Z,88.05
2023-09-08T14:46:57.517Z,85.99
2023-09-08T14:49:24.219Z,90.22
2023-09-08T14:51:50.910Z,87.31
2023-09-08T14:54:17.578Z,90.80
2023-09-08T14:56:44.176Z,86.41
2023-09-08T14:59:11.269Z,85.84
2023-09-08T15:01:40.100Z,87.82
2023-09-08T15:04:07.148Z,86.94
2023-09-08T15:06:33.972Z,86.20
2023-09-08T15:09:00.587Z,95.86
2023-09-08T15:11:27.670Z,87.83
2023-09-08T15:13:54.404Z,87.44
2023-09-08T15:16:21.252Z,92.04
2023-09-08T15:18:48.861Z,87.86
2023-09-08T15:21:15.723Z,84.92
2023-09-08T15:23:42.344Z,88.31
2023-09-08T15:26:10.685Z,89.65
2023-09-08T15:28:37.358Z,90.19
2023-09-08T15:31:04.579Z,90.22
2023-09-08T15:33:31.285Z,90.68
2023-09-08T15:35:58.938Z,88.46
2023-09-08T15:38:25.580Z,86.08
2023-09-08T15:41:08.327Z,87.68
2023-09-08T15:43:38.033Z,84.61
2023-09-08T15:46:06.011Z,90.82
2023-09-08T15:48:34.931Z,88.25
2023-09-08T15:51:02.129Z,85.31
2023-09-08T15:53:28.835Z,88.95
2023-09-08T15:55:55.469Z,85.91
2023-09-08T15:58:22.533Z,87.48
2023-09-08T16:00:49.308Z,85.75
2023-09-08T16:03:16.099Z,92.76
2023-09-08T16:05:42.895Z,83.29
2023-09-08T16:08:09.620Z,81.58
2023-09-08T16:10:36.465Z,83.97
2023-09-08T16:13:03.151Z,84.05
2023-09-08T16:15:30.067Z,83.13
2023-09-08T16:17:58.500Z,86.91
2023-09-08T16:20:25.290Z,83.47
2023-09-08T16:22:52.009Z,84.75
2023-09-08T16:25:18.597Z,84.96
2023-09-08T16:27:47.035Z,84.78
2023-09-08T16:30:13.900Z,83.19
2023-09-08T16:32:41.443Z,83.64
2023-09-08T16:35:08.623Z,84.25
2023-09-08T16:37:35.501Z,85.46
2023-09-08T16:40:02.307Z,85.91
2023-09-08T16:42:31.273Z,83.96
2023-09-08T16:44:58.161Z,85.18
2023-09-08T16:47:26.897Z,86.04
2023-09-08T16:49:54.291Z,88.21
2023-09-08T16:52:24.418Z,88.14
2023-09-08T16:54:51.280Z,89.27
2023-09-08T16:57:18.372Z,96.77
2023-09-08T16:59:45.462Z,92.13
2023-09-08T17:02:12.257Z,98.15
2023-09-08T17:04:39.060Z,93.37
2023-09-08T17:07:05.860Z,93.06
2023-09-08T17:09:32.859Z,92.77
2023-09-08T17:11:59.681Z,94.50
2023-09-08T17:14:26.442Z,91.54
2023-09-08T17:16:53.945Z,93.47
2023-09-08T17:19:20.642Z,93.49
2023-09-08T17:21:47.426Z,93.93
2023-09-08T17:24:15.282Z,95.51
2023-09-08T17:26:42.006Z,95.09
2023-09-08T17:29:10.628Z,98.11
2023-09-08T17:31:38.250Z,100.00
2023-09-08T17:34:07.452Z,100.00
2023-09-08T17:36:34.297Z,100.00
2023-09-08T17:39:00.894Z,100.00
2023-09-08T17:41:27.674Z,100.00
2023-09-08T17:43:54.334Z,100.00
2023-09-08T17:46:21.180Z,100.00
2023-09-08T17:48:48.053Z,100.00
2023-09-08T17:51:14.764Z,100.00
2023-09-08T17:53:41.421Z,100.00
2023-09-08T17:56:08.492Z,100.00
2023-09-08T17:58:35.165Z,100.00
2023-09-08T18:01:01.833Z,100.00
2023-09-08T18:03:29.881Z,100.00
2023-09-08T18:05:56.719Z,100.00
2023-09-08T18:08:23.404Z,100.00
2023-09-08T18:10:50.074Z,100.00
2023-09-08T18:13:16.829Z,100.00
2023-09-08T18:15:43.577Z,100.00
2023-09-08T18:18:10.448Z,100.00
2023-09-08T18:20:37.187Z,100.00
2023-09-08T18:23:03.823Z,100.00
2023-09-08T18:25:30.488Z,100.00
2023-09-08T18:27:57.156Z,100.00
2023-09-08T18:30:23.931Z,100.00
2023-09-08T18:32:50.593Z,100.00
2023-09-08T18:35:17.593Z,100.00
2023-09-08T18:37:44.234Z,100.00
2023-09-08T18:40:11.803Z,100.00
2023-09-08T18:42:40.043Z,100.00
2023-09-08T18:45:07.422Z,100.00
2023-09-08T18:47:34.228Z,100.00
2023-09-08T18:50:00.918Z,100.00
2023-09-08T18:52:27.532Z,100.00
2023-09-08T18:54:54.306Z,100.00
2023-09-08T18:57:20.989Z,100.00
2023-09-08T18:59:50.237Z,100.00
2023-09-08T19:02:17.094Z,100.00
2023-09-08T19:04:44.845Z,100.00
2023-09-08T19:07:12.276Z,100.00
2023-09-08T19:09:38.922Z,100.00
2023-09-08T19:12:05.729Z,100.00
2023-09-08T19:14:32.338Z,100.00
2023-09-08T19:16:59.210Z,100.00
2023-09-08T19:19:26.058Z,100.00
2023-09-08T19:21:54.443Z,100.00
2023-09-08T19:24:22.116Z,100.00
2023-09-08T19:26:49.496Z,100.00
2023-09-08T19:29:16.264Z,100.00
2023-09-08T19:31:42.930Z,100.00
2023-09-08T19:34:09.584Z,100.00
2023-09-08T19:36:36.222Z,100.00
2023-09-08T19:39:02.890Z,100.00
2023-09-08T19:41:29.609Z,100.00
2023-09-08T19:43:56.234Z,100.00
2023-09-08T19:46:22.836Z,100.00
2023-09-08T19:48:49.558Z,100.00
2023-09-08T19:51:17.116Z,100.00
2023-09-08T19:53:43.783Z,100.00
2023-09-08T19:56:10.597Z,100.00
2023-09-08T19:58:37.305Z,100.00
2023-09-08T20:01:05.383Z,100.00
2023-09-08T20:03:36.161Z,100.00
2023-09-08T20:06:03.962Z,100.00
2023-09-08T20:08:30.786Z,100.00
2023-09-08T20:10:57.487Z,100.00
2023-09-08T20:13:24.169Z,100.00
2023-09-08T20:16:06.096Z,100.00
2023-09-08T20:18:33.045Z,100.00
2023-09-08T20:21:04.429Z,100.00
2023-09-08T20:23:32.918Z,100.00
2023-09-08T20:26:00.296Z,100.00
2023-09-08T20:28:27.439Z,100.00
2023-09-08T20:31:09.532Z,100.00
2023-09-08T20:33:41.704Z,100.00
2023-09-08T20:36:09.058Z,100.00
2023-09-08T20:38:35.760Z,100.00
2023-09-08T20:41:02.430Z,100.00
2023-09-08T20:43:29.265Z,100.00
2023-09-08T20:46:00.614Z,100.00
2023-09-08T20:48:27.527Z,100.00
2023-09-08T20:51:04.633Z,100.00
2023-09-08T20:53:33.392Z,100.00
2023-09-08T20:56:00.630Z,100.00
2023-09-08T20:58:27.684Z,100.00
2023-09-08T21:00:58.310Z,100.00
2023-09-08T21:03:25.756Z,100.00
2023-09-08T21:05:52.418Z,100.00
2023-09-08T21:08:20.064Z,100.00
2023-09-08T21:10:47.683Z,100.00
2023-09-08T21:13:15.170Z,100.00
2023-09-08T21:15:42.401Z,100.00
2023-09-08T21:18:09.661Z,100.00
2023-09-08T21:20:36.588Z,100.00
2023-09-08T21:23:04.355Z,100.00
2023-09-08T21:25:35.374Z,100.00
2023-09-08T21:28:03.106Z,100.00
2023-09-08T21:30:30.859Z,100.00
2023-09-08T21:32:57.992Z,100.00
2023-09-08T21:35:27.636Z,100.00
2023-09-08T21:37:54.577Z,100.00
2023-09-08T21:40:22.767Z,100.00
2023-09-08T21:42:49.430Z,100.00
2023-09-08T21:45:16.179Z,100.00
2023-09-08T21:47:42.941Z,100.00
2023-09-08T21:50:09.842Z,100.00
2023-09-08T21:52:39.425Z,100.00
2023-09-08T21:55:07.884Z,100.00
2023-09-08T21:57:34.806Z,100.00
2023-09-08T22:00:02.364Z,100.00
2023-09-08T22:02:30.313Z,100.00
2023-09-08T22:04:57.348Z,100.00
2023-09-08T22:07:24.064Z,100.00
2023-09-08T22:09:54.236Z,100.00
2023-09-08T22:12:20.896Z,100.00
2023-09-08T22:14:50.396Z,100.00
2023-09-08T22:17:17.500Z,100.00
2023-09-08T22:19:44.389Z,100.00
2023-09-08T22:22:11.764Z,100.00
2023-09-08T22:24:38.421Z,100.00
2023-09-08T22:27:05.637Z,100.00
2023-09-08T22:29:32.889Z,100.00
2023-09-08T22:31:59.576Z,100.00
2023-09-08T22:34:26.848Z,100.00
2023-09-08T22:36:53.829Z,100.00
2023-09-08T22:39:21.676Z,100.00
2023-09-08T22:41:48.532Z,100.00
2023-09-08T22:44:15.272Z,100.00
2023-09-08T22:46:42.321Z,100.00
2023-09-08T22:49:09.067Z,100.00
2023-09-08T22:51:35.891Z,100.00
2023-09-08T22:54:04.041Z,100.00
2023-09-08T22:56:30.822Z,100.00
2023-09-08T22:58:57.468Z,100.00
2023-09-08T23:01:26.278Z,100.00
2023-09-08T23:03:53.157Z,100.00
2023-09-08T23:06:19.952Z,100.00
2023-09-08T23:08:47.192Z,100.00
2023-09-08T23:11:14.253Z,100.00
2023-09-08T23:13:41.238Z,100.00
2023-09-08T23:16:12.878Z,100.00
2023-09-08T23:18:39.622Z,100.00
2023-09-08T23:21:06.760Z,100.00
2023-09-08T23:23:35.363Z,100.00
2023-09-08T23:26:04.088Z,100.00
2023-09-08T23:28:30.792Z,100.00
2023-09-08T23:30:57.498Z,100.00
2023-09-08T23:33:24.255Z,100.00
2023-09-08T23:35:50.921Z,100.00
2023-09-08T23:38:17.535Z,100.00
2023-09-08T23:40:44.109Z,100.00
2023-09-08T23:43:10.924Z,100.00
2023-09-08T23:45:38.183Z,100.00
2023-09-08T23:48:06.134Z,100.00
2023-09-08T23:50:50.817Z,100.00
2023-09-08T23:53:18.099Z,100.00
2023-09-08T23:55:45.530Z,100.00
2023-09-08T23:58:12.527Z,100.00
